Time;durP1;ratioP1;P1;durP2;ratioP2;P2;SDS_P1;SDS_P2;PMS_P1;PMS_P2;Temp;Humidity;BMP_temperature;BMP_pressure;BME280_temperature;BME280_humidity;BME280_pressure;Samples;Min_cycle;Max_cycle;Signal;HPM_P1;HPM_P2
2022/09/24 00:02:18;;;;;;;15.03;13.50;;;11.40;99.90;;;;;;5067441;28;20851;-65
2022/09/24 00:04:44;;;;;;;15.63;14.03;;;11.40;99.90;;;;;;5067196;28;20566;-66
2022/09/24 00:07:11;;;;;;;14.17;12.60;;;11.40;99.90;;;;;;5061186;28;20452;-66
2022/09/24 00:09:38;;;;;;;15.57;13.73;;;11.40;99.90;;;;;;5046195;28;20457;-66
2022/09/24 00:12:05;;;;;;;13.80;12.37;;;11.40;99.90;;;;;;5047453;28;20463;-66
2022/09/24 00:14:32;;;;;;;12.80;11.50;;;11.30;99.90;;;;;;5062239;28;21011;-66
2022/09/24 00:16:59;;;;;;;14.10;12.90;;;11.40;99.90;;;;;;5056556;28;20447;-66
2022/09/24 00:19:27;;;;;;;13.67;12.50;;;11.40;99.90;;;;;;5066009;28;20474;-66
2022/09/24 00:21:54;;;;;;;13.47;12.17;;;11.40;99.90;;;;;;5069788;28;20966;-65
2022/09/24 00:27:06;;;;;;;13.67;12.27;;;11.50;99.90;;;;;;5070400;28;20417;-65
2022/09/24 00:29:34;;;;;;;13.77;12.17;;;11.60;99.90;;;;;;5070929;28;20453;-65
2022/09/24 00:32:02;;;;;;;13.90;12.57;;;11.70;99.90;;;;;;5070209;28;20450;-66
2022/09/24 00:34:30;;;;;;;12.20;10.93;;;11.70;99.90;;;;;;5070201;28;20469;-66
2022/09/24 00:36:57;;;;;;;14.23;12.83;;;11.70;99.90;;;;;;5070514;28;20443;-65
2022/09/24 00:39:24;;;;;;;11.63;10.57;;;11.70;99.90;;;;;;5070606;28;20478;-65
2022/09/24 00:41:51;;;;;;;12.87;11.50;;;11.80;99.90;;;;;;5064023;28;20478;-65
2022/09/24 00:44:52;;;;;;;12.63;11.43;;;11.80;99.90;;;;;;5069725;28;20882;-65
2022/09/24 00:47:28;;;;;;;14.23;12.73;;;11.80;99.90;;;;;;5061107;28;20447;-65
2022/09/24 00:50:04;;;;;;;13.60;12.20;;;11.80;99.90;;;;;;5069364;28;20438;-66
2022/09/24 00:52:32;;;;;;;12.60;11.30;;;11.80;99.90;;;;;;5048237;28;20451;-66
2022/09/24 00:54:59;;;;;;;12.63;11.37;;;11.70;99.90;;;;;;5045326;28;20467;-66
2022/09/24 00:57:27;;;;;;;13.23;12.03;;;11.60;99.90;;;;;;5051272;28;20987;-66
2022/09/24 00:59:54;;;;;;;13.47;12.27;;;11.60;99.90;;;;;;5051486;28;20529;-66
2022/09/24 01:02:23;;;;;;;13.00;11.70;;;11.50;99.90;;;;;;5051347;28;20456;-67
2022/09/24 01:04:49;;;;;;;13.50;12.30;;;11.40;99.90;;;;;;5051340;28;20463;-67
2022/09/24 01:07:17;;;;;;;13.10;11.93;;;11.30;99.90;;;;;;5051079;28;20444;-65
2022/09/24 01:09:44;;;;;;;12.50;11.40;;;11.30;99.90;;;;;;5051450;28;21030;-66
2022/09/24 01:12:22;;;;;;;14.80;13.23;;;11.40;99.90;;;;;;5050445;28;20819;-67
2022/09/24 01:15:02;;;;;;;14.00;12.43;;;11.30;99.90;;;;;;5051014;28;20958;-67
2022/09/24 01:17:36;;;;;;;13.37;12.00;;;11.20;99.90;;;;;;5047170;28;20750;-66
2022/09/24 01:20:39;;;;;;;14.10;12.60;;;11.30;99.90;;;;;;5050930;28;20701;-66
2022/09/24 01:23:26;;;;;;;12.30;11.20;;;11.20;99.90;;;;;;5050362;28;20455;-66
2022/09/24 01:26:05;;;;;;;13.07;11.70;;;11.20;99.90;;;;;;5050412;28;20458;-65
2022/09/24 01:28:41;;;;;;;13.37;12.07;;;11.30;99.90;;;;;;5050917;28;20917;-66
2022/09/24 01:31:14;;;;;;;14.93;13.20;;;11.20;99.90;;;;;;5050322;28;20452;-67
2022/09/24 01:33:44;;;;;;;13.20;11.90;;;11.30;99.90;;;;;;5042763;28;20502;-66
2022/09/24 01:36:13;;;;;;;17.33;12.97;;;11.30;99.90;;;;;;5044328;28;20444;-66
2022/09/24 01:38:43;;;;;;;14.80;11.60;;;11.30;99.90;;;;;;5050175;28;20475;-65
2022/09/24 01:41:12;;;;;;;13.83;12.60;;;11.20;99.90;;;;;;5049996;28;20441;-65
2022/09/24 01:43:39;;;;;;;12.97;11.77;;;11.30;99.90;;;;;;5050148;28;20481;-65
2022/09/24 01:46:07;;;;;;;12.57;11.37;;;11.40;99.90;;;;;;5050017;28;20452;-66
2022/09/24 01:48:37;;;;;;;12.40;11.30;;;11.30;99.90;;;;;;5050201;28;20479;-66
2022/09/24 01:51:10;;;;;;;13.00;11.90;;;11.30;99.90;;;;;;5050180;28;20448;-66
2022/09/24 01:53:41;;;;;;;13.60;12.30;;;11.10;99.90;;;;;;5049804;28;20468;-65
2022/09/24 01:56:13;;;;;;;13.00;11.80;;;11.00;99.90;;;;;;5050203;28;20519;-66
2022/09/24 01:58:47;;;;;;;15.70;14.20;;;11.00;99.90;;;;;;5049960;28;20491;-65
2022/09/24 02:01:17;;;;;;;14.33;12.83;;;10.90;99.90;;;;;;5050301;28;20449;-66
2022/09/24 02:03:51;;;;;;;15.20;12.73;;;10.90;99.90;;;;;;5050111;28;20468;-65
2022/09/24 02:06:24;;;;;;;14.00;12.60;;;10.80;99.90;;;;;;5050832;28;20451;-65
2022/09/24 02:08:50;;;;;;;13.97;12.60;;;10.70;99.90;;;;;;5051963;28;20436;-65
2022/09/24 02:11:21;;;;;;;17.27;13.53;;;10.70;99.90;;;;;;5051765;28;20448;-65
2022/09/24 02:13:50;;;;;;;14.07;12.60;;;10.60;99.90;;;;;;5051430;28;20480;-66
2022/09/24 02:16:23;;;;;;;16.20;13.70;;;10.60;99.90;;;;;;5051262;28;20466;-66
2022/09/24 02:18:55;;;;;;;15.20;13.80;;;10.60;99.90;;;;;;5051289;28;20480;-66
2022/09/24 02:21:24;;;;;;;15.70;14.20;;;10.70;99.90;;;;;;5051796;28;20452;-66
2022/09/24 02:23:55;;;;;;;15.67;14.07;;;10.80;99.90;;;;;;5051132;28;20842;-66
2022/09/24 02:26:22;;;;;;;14.50;13.07;;;10.80;99.90;;;;;;5051353;28;20440;-66
2022/09/24 02:28:49;;;;;;;15.00;13.50;;;10.70;99.90;;;;;;5044829;28;20455;-66
2022/09/24 02:31:18;;;;;;;17.33;14.20;;;10.80;99.90;;;;;;5051481;28;20455;-66
2022/09/24 02:36:36;;;;;;;15.43;14.00;;;10.80;99.90;;;;;;5047424;28;20429;-66
2022/09/24 02:39:03;;;;;;;17.07;13.23;;;10.80;99.90;;;;;;5051041;28;20476;-66
2022/09/24 02:41:31;;;;;;;14.83;13.53;;;10.80;99.90;;;;;;5050774;28;20474;-66
2022/09/24 02:43:58;;;;;;;13.07;11.73;;;10.90;99.90;;;;;;5050283;28;20475;-66
2022/09/24 02:46:24;;;;;;;14.77;13.37;;;11.00;99.90;;;;;;5051042;28;20444;-67
2022/09/24 02:48:51;;;;;;;13.57;12.27;;;11.00;99.90;;;;;;5051208;28;20451;-66
2022/09/24 02:51:18;;;;;;;14.07;12.70;;;10.90;99.90;;;;;;5051130;28;20455;-68
2022/09/24 02:53:46;;;;;;;13.10;11.90;;;10.80;99.90;;;;;;5050685;28;20474;-66
2022/09/24 02:56:13;;;;;;;14.10;12.80;;;10.80;99.90;;;;;;5051063;28;20817;-66
2022/09/24 02:58:40;;;;;;;14.30;13.00;;;10.80;99.90;;;;;;5050578;28;20458;-66
2022/09/24 03:01:06;;;;;;;13.23;12.03;;;10.90;99.90;;;;;;5050872;28;20455;-67
2022/09/24 03:03:33;;;;;;;14.47;12.80;;;10.80;99.90;;;;;;5046757;28;20495;-66
2022/09/24 03:06:00;;;;;;;13.77;12.47;;;10.80;99.90;;;;;;5049968;28;20458;-65
2022/09/24 03:08:27;;;;;;;13.87;12.57;;;10.80;99.90;;;;;;5049838;28;20443;-66
2022/09/24 03:10:55;;;;;;;14.33;13.03;;;10.90;99.90;;;;;;5049044;28;20448;-65
2022/09/24 03:13:22;;;;;;;13.83;12.63;;;10.90;99.90;;;;;;5050367;28;20492;-65
2022/09/24 03:15:49;;;;;;;14.13;12.83;;;10.90;99.90;;;;;;5050074;28;20444;-65
2022/09/24 03:18:16;;;;;;;13.67;12.37;;;11.00;99.90;;;;;;5050951;28;20452;-65
2022/09/24 03:20:43;;;;;;;12.40;11.20;;;11.00;99.90;;;;;;5050588;28;20483;-65
2022/09/24 03:23:10;;;;;;;13.23;12.00;;;11.00;99.90;;;;;;5050454;28;20452;-65
2022/09/24 03:25:36;;;;;;;11.30;10.30;;;10.90;99.90;;;;;;5050892;28;20449;-65
2022/09/24 03:28:04;;;;;;;14.30;12.80;;;11.10;99.90;;;;;;5050565;28;20464;-65
2022/09/24 03:33:15;;;;;;;542.00;113.57;;;11.00;99.90;;;;;;5050193;28;21003;-66
2022/09/24 03:35:42;;;;;;;12.83;11.67;;;10.90;99.90;;;;;;5049557;28;20448;-65
2022/09/24 03:38:09;;;;;;;190.47;137.87;;;10.90;99.90;;;;;;5050413;28;20985;-66
2022/09/24 03:40:36;;;;;;;238.23;113.43;;;10.90;99.90;;;;;;5050338;28;20484;-65
2022/09/24 03:43:02;;;;;;;13.80;12.40;;;10.90;99.90;;;;;;5050471;28;20440;-65
2022/09/24 03:45:30;;;;;;;104.43;9.57;;;11.00;99.90;;;;;;5050735;28;20443;-66
2022/09/24 03:47:57;;;;;;;1999.90;999.90;;;11.10;99.90;;;;;;5050706;28;20527;-65
2022/09/24 03:50:24;;;;;;;1999.90;999.90;;;11.10;99.90;;;;;;5050702;28;20443;-66
2022/09/24 03:52:51;;;;;;;1999.90;999.90;;;11.20;99.90;;;;;;5050421;28;20471;-64
2022/09/24 03:55:18;;;;;;;1999.90;999.90;;;11.10;99.90;;;;;;5050091;28;20452;-66
2022/09/24 03:57:44;;;;;;;1999.90;999.90;;;11.20;99.90;;;;;;5050525;28;20448;-64
2022/09/24 04:00:12;;;;;;;1999.90;999.90;;;11.10;99.90;;;;;;5050419;28;20875;-64
2022/09/24 04:02:40;;;;;;;1999.90;999.90;;;11.00;99.90;;;;;;5050253;28;20509;-65
2022/09/24 04:05:08;;;;;;;1999.90;999.90;;;10.90;99.90;;;;;;5050482;28;20538;-65
2022/09/24 04:07:34;;;;;;;1999.90;999.90;;;11.00;99.90;;;;;;5050603;28;20444;-66
2022/09/24 04:10:01;;;;;;;1999.90;999.90;;;11.10;99.90;;;;;;5050596;28;20444;-65
2022/09/24 04:12:30;;;;;;;1999.90;999.90;;;11.10;99.90;;;;;;5050213;28;20448;-66
2022/09/24 04:14:56;;;;;;;1999.90;999.90;;;11.10;99.90;;;;;;5051581;28;20897;-65
2022/09/24 04:17:23;;;;;;;1999.90;999.90;;;11.20;99.90;;;;;;5051125;28;20539;-65
2022/09/24 04:19:52;;;;;;;1999.90;999.90;;;11.20;99.90;;;;;;5050581;28;20484;-65
2022/09/24 04:22:19;;;;;;;1999.90;999.90;;;11.20;99.90;;;;;;5050865;28;20456;-66
2022/09/24 04:24:46;;;;;;;1999.90;999.90;;;11.30;99.90;;;;;;5050982;28;20459;-65
2022/09/24 04:27:13;;;;;;;1999.90;999.90;;;11.20;99.90;;;;;;5050678;28;20958;-64
2022/09/24 04:29:40;;;;;;;1999.90;999.90;;;11.30;99.90;;;;;;5050511;28;20448;-65
2022/09/24 04:32:07;;;;;;;1999.90;999.90;;;11.40;99.90;;;;;;5050458;28;20963;-66
2022/09/24 04:34:34;;;;;;;1999.90;999.90;;;11.40;99.90;;;;;;5050639;28;20464;-67
2022/09/24 04:37:02;;;;;;;1999.90;999.90;;;11.50;99.90;;;;;;5050511;28;20930;-65
2022/09/24 04:39:28;;;;;;;1999.90;999.90;;;11.50;99.90;;;;;;5050149;28;20479;-66
2022/09/24 04:41:55;;;;;;;1999.90;999.90;;;11.50;99.90;;;;;;5050288;28;20446;-67
2022/09/24 04:44:22;;;;;;;1999.90;999.90;;;11.30;99.90;;;;;;5050322;28;20486;-65
2022/09/24 04:46:49;;;;;;;1999.90;999.90;;;11.40;99.90;;;;;;5050663;28;20451;-65
2022/09/24 04:49:16;;;;;;;1999.90;999.90;;;11.40;99.90;;;;;;5050125;28;20458;-66
2022/09/24 04:51:42;;;;;;;1999.90;999.90;;;11.30;99.90;;;;;;5050142;28;20476;-66
2022/09/24 04:54:11;;;;;;;1999.90;999.90;;;11.30;99.90;;;;;;5050123;28;20475;-66
2022/09/24 04:56:38;;;;;;;1999.90;999.90;;;11.20;99.90;;;;;;5050399;28;20444;-67
2022/09/24 04:59:04;;;;;;;1999.90;999.90;;;11.20;99.90;;;;;;5050175;28;20459;-67
2022/09/24 05:01:31;;;;;;;1999.90;999.90;;;11.20;99.90;;;;;;5050135;28;20491;-66
2022/09/24 05:03:58;;;;;;;1999.90;999.90;;;11.20;99.90;;;;;;5049969;28;20464;-65
2022/09/24 05:06:24;;;;;;;1999.90;999.90;;;11.30;99.90;;;;;;5051299;28;20538;-66
2022/09/24 05:08:51;;;;;;;1999.90;999.90;;;11.30;99.90;;;;;;5054165;28;20447;-65
2022/09/24 05:11:19;;;;;;;1999.90;999.90;;;11.40;99.90;;;;;;5053775;28;20526;-65
2022/09/24 05:13:46;;;;;;;1999.90;999.90;;;11.30;99.90;;;;;;5053494;28;20468;-66
2022/09/24 05:16:13;;;;;;;1999.90;999.90;;;11.30;99.90;;;;;;5053874;28;20488;-65
2022/09/24 05:18:40;;;;;;;1999.90;999.90;;;11.40;99.90;;;;;;5053570;28;21111;-66
2022/09/24 05:21:06;;;;;;;1999.90;999.90;;;11.40;99.90;;;;;;5053811;28;20494;-66
2022/09/24 05:23:33;;;;;;;1999.90;999.90;;;11.50;99.90;;;;;;5053279;28;20467;-66
2022/09/24 05:28:47;;;;;;;1999.90;999.90;;;11.50;99.90;;;;;;5053488;28;20513;-66
2022/09/24 05:31:13;;;;;;;1999.90;999.90;;;11.50;99.90;;;;;;5053324;28;20444;-66
2022/09/24 05:33:40;;;;;;;1999.90;999.90;;;11.50;99.90;;;;;;5053014;28;20479;-67
2022/09/24 05:36:07;;;;;;;1999.90;999.90;;;11.40;99.90;;;;;;5053436;28;20458;-65
2022/09/24 05:38:34;;;;;;;1999.90;999.90;;;11.30;99.90;;;;;;5053086;28;20535;-66
2022/09/24 05:41:02;;;;;;;1999.90;999.90;;;11.30;99.90;;;;;;5053270;28;20490;-65
2022/09/24 05:43:30;;;;;;;1999.90;999.90;;;11.30;99.90;;;;;;5052672;28;20482;-66
2022/09/24 05:45:58;;;;;;;1999.90;999.90;;;11.40;99.90;;;;;;5053031;28;20452;-66
2022/09/24 05:48:25;;;;;;;1999.90;999.90;;;11.40;99.90;;;;;;5052869;28;20448;-65
2022/09/24 05:50:54;;;;;;;1999.90;999.90;;;11.50;99.90;;;;;;5053277;28;20440;-65
2022/09/24 05:53:21;;;;;;;1999.90;999.90;;;11.40;99.90;;;;;;5052729;28;21167;-66
2022/09/24 05:55:48;;;;;;;1999.90;999.90;;;11.40;99.90;;;;;;5052968;28;20961;-67
2022/09/24 05:58:15;;;;;;;1999.90;999.90;;;11.60;99.90;;;;;;5052767;28;20451;-66
2022/09/24 06:00:44;;;;;;;1999.90;999.90;;;11.70;99.90;;;;;;5052855;28;20484;-66
2022/09/24 06:03:13;;;;;;;1999.90;999.90;;;11.80;99.90;;;;;;5052579;28;21112;-65
2022/09/24 06:05:45;;;;;;;1999.90;999.90;;;12.00;99.90;;;;;;5052916;28;20455;-65
2022/09/24 06:08:14;;;;;;;1999.90;999.90;;;12.10;99.90;;;;;;5052502;28;20994;-65
2022/09/24 06:10:40;;;;;;;1999.90;999.90;;;12.20;99.90;;;;;;5052984;28;20538;-66
2022/09/24 06:13:08;;;;;;;1999.90;999.90;;;12.30;99.90;;;;;;5052449;28;20452;-67
2022/09/24 06:15:34;;;;;;;1999.90;999.90;;;12.40;99.90;;;;;;5052987;28;20486;-66
2022/09/24 06:18:01;;;;;;;1999.90;999.90;;;12.60;99.90;;;;;;5052590;28;20451;-67
2022/09/24 06:20:29;;;;;;;1999.90;999.90;;;12.70;99.90;;;;;;5053054;28;20480;-67
2022/09/24 06:22:57;;;;;;;1999.90;999.90;;;12.70;99.90;;;;;;5052281;28;20448;-66
2022/09/24 06:25:24;;;;;;;1999.90;999.90;;;12.80;99.90;;;;;;5052625;28;21120;-66
2022/09/24 06:27:59;;;;;;;1999.90;999.90;;;12.80;99.90;;;;;;5052526;28;20456;-65
2022/09/24 06:30:27;;;;;;;1999.90;999.90;;;13.00;99.90;;;;;;5052629;28;21064;-66
2022/09/24 06:32:54;;;;;;;1999.90;999.90;;;13.00;99.90;;;;;;5052322;28;20518;-67
2022/09/24 06:35:21;;;;;;;1999.90;999.90;;;13.10;99.90;;;;;;5052181;28;20440;-66
2022/09/24 06:37:52;;;;;;;1999.90;999.90;;;13.20;99.90;;;;;;5052533;28;20448;-67
2022/09/24 06:40:19;;;;;;;1999.90;999.90;;;13.30;99.90;;;;;;5052485;28;20494;-67
2022/09/24 06:42:51;;;;;;;1999.90;999.90;;;13.30;99.90;;;;;;5052341;28;20444;-67
2022/09/24 06:45:17;;;;;;;1999.90;999.90;;;13.40;99.90;;;;;;5052619;28;20468;-67
2022/09/24 06:47:44;;;;;;;1999.90;999.90;;;13.50;99.90;;;;;;5052954;28;20466;-67
2022/09/24 06:50:11;;;;;;;1999.90;999.90;;;13.60;99.90;;;;;;5052204;28;20437;-67
2022/09/24 06:52:38;;;;;;;1999.90;999.90;;;13.60;99.90;;;;;;5051422;28;20444;-67
2022/09/24 06:55:07;;;;;;;1999.90;999.90;;;13.60;99.90;;;;;;5051632;28;20475;-67
2022/09/24 06:57:33;;;;;;;1999.90;999.90;;;13.70;99.90;;;;;;5051455;28;20447;-67
2022/09/24 07:00:00;;;;;;;1999.90;999.90;;;13.70;99.90;;;;;;5051227;28;20447;-66
2022/09/24 07:02:29;;;;;;;1999.90;999.90;;;13.70;99.90;;;;;;5050662;28;20447;-65
2022/09/24 07:04:56;;;;;;;1999.90;999.90;;;13.70;99.90;;;;;;5051119;28;20472;-66
2022/09/24 07:07:29;;;;;;;1999.90;999.90;;;13.80;99.90;;;;;;5051199;28;21306;-66
2022/09/24 07:09:56;;;;;;;1999.90;999.90;;;13.80;99.90;;;;;;5051067;28;20455;-64
2022/09/24 07:12:24;;;;;;;1999.90;999.90;;;13.90;99.90;;;;;;5050945;28;20470;-66
2022/09/24 07:14:51;;;;;;;1999.90;999.90;;;14.00;99.90;;;;;;5051120;28;20479;-65
2022/09/24 07:17:17;;;;;;;1999.90;999.90;;;14.20;99.90;;;;;;5050827;28;20539;-65
2022/09/24 07:19:44;;;;;;;1999.90;999.90;;;14.30;99.90;;;;;;5047101;28;20452;-65
2022/09/24 07:22:11;;;;;;;1999.90;999.90;;;14.40;99.90;;;;;;5038584;28;20476;-65
2022/09/24 07:24:38;;;;;;;1999.90;999.90;;;14.40;99.90;;;;;;5036087;28;20818;-69
2022/09/24 07:27:05;;;;;;;1999.90;999.90;;;14.50;99.90;;;;;;5041076;28;20448;-66
2022/09/24 07:29:33;;;;;;;1999.90;999.90;;;14.60;99.90;;;;;;5035457;28;20449;-66
2022/09/24 07:32:01;;;;;;;1999.90;999.90;;;14.70;99.90;;;;;;5041716;28;20448;-67
2022/09/24 07:34:28;;;;;;;1999.90;999.90;;;14.80;99.90;;;;;;5040480;28;20486;-66
2022/09/24 07:36:55;;;;;;;1999.90;999.90;;;14.90;99.90;;;;;;5047534;28;20479;-66
2022/09/24 07:39:22;;;;;;;1999.90;999.90;;;15.00;99.90;;;;;;5042695;28;20505;-64
2022/09/24 07:41:51;;;;;;;1999.90;999.90;;;14.90;99.90;;;;;;5049571;28;20858;-65
2022/09/24 07:44:19;;;;;;;1999.90;999.90;;;14.90;99.90;;;;;;5048419;28;21167;-64
2022/09/24 07:46:48;;;;;;;1999.90;999.90;;;15.00;99.90;;;;;;5047781;28;21012;-64
2022/09/24 07:49:15;;;;;;;1999.90;999.90;;;15.10;99.90;;;;;;5039772;28;20470;-65
2022/09/24 07:51:42;;;;;;;1999.90;999.90;;;15.20;99.90;;;;;;5046099;28;20435;-66
2022/09/24 07:54:10;;;;;;;1999.90;999.90;;;15.10;99.90;;;;;;5048398;28;20472;-64
2022/09/24 07:56:37;;;;;;;1999.90;999.90;;;15.30;99.90;;;;;;5047869;28;20452;-65
2022/09/24 07:59:05;;;;;;;1999.90;999.90;;;15.30;99.90;;;;;;5047930;28;20452;-66
2022/09/24 08:01:33;;;;;;;1999.90;999.90;;;15.30;99.90;;;;;;5047958;28;20555;-66
2022/09/24 08:04:03;;;;;;;1999.90;999.90;;;15.10;99.90;;;;;;5048780;28;20471;-65
2022/09/24 08:06:32;;;;;;;1999.90;999.90;;;15.00;99.90;;;;;;5045234;28;20445;-63
2022/09/24 08:08:59;;;;;;;1999.90;999.90;;;15.10;99.90;;;;;;5037108;28;20457;-67
2022/09/24 08:11:26;;;;;;;1999.90;999.90;;;15.10;99.90;;;;;;5036642;28;20444;-67
2022/09/24 08:13:53;;;;;;;1999.90;999.90;;;15.20;99.90;;;;;;5045242;28;20475;-68
2022/09/24 08:16:21;;;;;;;1999.90;999.90;;;15.40;99.90;;;;;;5044287;28;20476;-66
2022/09/24 08:18:48;;;;;;;1999.90;999.90;;;15.60;99.90;;;;;;5040927;28;20848;-66
2022/09/24 08:21:16;;;;;;;1999.90;999.90;;;15.80;99.90;;;;;;5044664;28;20487;-66
2022/09/24 08:23:44;;;;;;;1999.90;999.90;;;16.00;99.90;;;;;;5045774;28;20488;-67
2022/09/24 08:26:12;;;;;;;1999.90;999.90;;;16.10;99.90;;;;;;5036280;28;20455;-66
2022/09/24 08:28:40;;;;;;;1999.90;999.90;;;16.30;99.90;;;;;;5043307;28;20846;-65
2022/09/24 08:31:10;;;;;;;1999.90;999.90;;;16.70;99.90;;;;;;5039653;28;20506;-66
2022/09/24 08:33:37;;;;;;;1999.90;999.90;;;17.00;99.90;;;;;;5045351;28;20474;-65
2022/09/24 08:36:07;;;;;;;1999.90;999.90;;;17.00;99.90;;;;;;5036819;28;20444;-66
2022/09/24 08:38:35;;;;;;;1999.90;999.90;;;17.10;99.90;;;;;;5033965;28;20448;-65
2022/09/24 08:41:16;;;;;;;1999.90;999.90;;;17.00;99.90;;;;;;5044251;28;20479;-65
2022/09/24 08:43:51;;;;;;;1999.90;999.90;;;17.00;99.90;;;;;;5047747;28;21205;-66
2022/09/24 08:49:13;;;;;;;1999.90;999.90;;;17.30;99.90;;;;;;5051924;28;20427;-65
2022/09/24 08:51:47;;;;;;;1999.90;999.90;;;17.80;99.90;;;;;;5052504;28;20444;-67
2022/09/24 08:54:15;;;;;;;1999.90;999.90;;;18.20;99.90;;;;;;5052509;28;20851;-67
2022/09/24 08:56:45;;;;;;;1999.90;999.90;;;18.20;99.90;;;;;;5053131;28;20440;-67
2022/09/24 08:59:26;;;;;;;1999.90;999.90;;;18.40;99.90;;;;;;5052915;28;20439;-66
2022/09/24 09:02:01;;;;;;;1999.90;999.90;;;18.80;99.90;;;;;;5052470;28;20475;-66
2022/09/24 09:04:33;;;;;;;1999.90;999.90;;;19.10;99.90;;;;;;5049707;28;20471;-67
2022/09/24 09:07:12;;;;;;;1999.90;999.90;;;19.30;99.90;;;;;;5052232;28;20444;-66
2022/09/24 09:09:48;;;;;;;1999.90;999.90;;;19.10;99.90;;;;;;5046539;28;20439;-66
2022/09/24 09:12:19;;;;;;;1999.90;999.90;;;19.10;99.90;;;;;;5051805;28;20925;-66
2022/09/24 09:14:54;;;;;;;1999.90;999.90;;;19.20;99.90;;;;;;5052360;28;20483;-67
2022/09/24 09:17:35;;;;;;;1999.90;999.90;;;19.20;99.90;;;;;;5052426;28;20452;-66
2022/09/24 09:20:07;;;;;;;1999.90;999.90;;;19.20;99.90;;;;;;5052197;28;20504;-65
2022/09/24 09:22:39;;;;;;;1999.90;999.90;;;19.00;99.90;;;;;;5052142;28;20573;-67
2022/09/24 09:25:19;;;;;;;1999.90;999.90;;;19.10;99.90;;;;;;5052181;28;20466;-67
2022/09/24 09:27:50;;;;;;;1999.90;999.90;;;19.50;99.90;;;;;;5052319;28;20455;-66
2022/09/24 09:30:19;;;;;;;1999.90;999.90;;;20.00;99.90;;;;;;5052080;28;20498;-67
2022/09/24 09:33:01;;;;;;;1999.90;999.90;;;20.40;99.90;;;;;;5051531;28;20489;-66
2022/09/24 09:35:34;;;;;;;1999.90;999.90;;;20.70;99.90;;;;;;5050600;28;20531;-66
2022/09/24 09:38:11;;;;;;;1999.90;999.90;;;21.20;99.90;;;;;;5052344;28;20444;-69
2022/09/24 09:40:45;;;;;;;1999.90;999.90;;;21.70;99.90;;;;;;5052052;28;20446;-67
2022/09/24 09:43:14;;;;;;;1999.90;999.90;;;21.80;99.90;;;;;;5051382;28;20808;-66
2022/09/24 09:45:56;;;;;;;1999.90;999.90;;;21.90;99.90;;;;;;5051562;28;20451;-68
2022/09/24 09:48:26;;;;;;;1999.90;999.90;;;21.80;99.90;;;;;;5050451;28;20459;-66
2022/09/24 09:51:02;;;;;;;1999.90;999.90;;;22.00;99.90;;;;;;5051818;28;20844;-67
2022/09/24 09:53:30;;;;;;;1999.90;999.90;;;22.20;99.90;;;;;;5050172;28;20503;-67
2022/09/24 09:56:00;;;;;;;1999.90;999.90;;;22.20;99.90;;;;;;5051615;28;20475;-68
2022/09/24 09:58:28;;;;;;;1999.90;999.90;;;21.90;99.90;;;;;;5048197;28;20449;-66
2022/09/24 10:01:04;;;;;;;1999.90;999.90;;;21.70;99.90;;;;;;5056851;28;20450;-67
2022/09/24 10:03:33;;;;;;;1999.90;999.90;;;21.40;99.90;;;;;;5051877;28;20462;-66
2022/09/24 10:06:03;;;;;;;1999.90;999.90;;;21.10;99.90;;;;;;5050354;28;20444;-64
2022/09/24 10:08:30;;;;;;;1999.90;999.90;;;21.00;99.90;;;;;;5053006;28;20451;-67
2022/09/24 10:10:59;;;;;;;1999.90;999.90;;;20.90;99.90;;;;;;5050954;28;20479;-64
2022/09/24 10:13:27;;;;;;;1999.90;999.90;;;20.90;99.90;;;;;;5046259;28;20468;-65
2022/09/24 10:15:56;;;;;;;1999.90;999.90;;;20.80;99.90;;;;;;5046133;28;20444;-66
2022/09/24 10:18:30;;;;;;;1999.90;999.90;;;20.30;99.90;;;;;;5046613;28;20459;-65
2022/09/24 10:21:01;;;;;;;1999.90;999.90;;;20.10;99.90;;;;;;5046159;28;20445;-65
2022/09/24 10:23:34;;;;;;;1999.90;999.90;;;19.80;99.90;;;;;;5045754;28;20479;-66
2022/09/24 10:26:04;;;;;;;1999.90;999.90;;;19.40;99.90;;;;;;5046312;28;20459;-65
2022/09/24 10:31:20;;;;;;;1999.90;999.90;;;18.20;99.90;;;;;;5046781;28;20848;-64
2022/09/24 10:33:50;;;;;;;1999.90;999.90;;;17.60;99.90;;;;;;5046541;28;20464;-64
2022/09/24 10:36:20;;;;;;;1999.90;999.90;;;17.20;99.90;;;;;;5049584;28;20971;-65
2022/09/24 10:38:47;;;;;;;1999.90;999.90;;;17.00;99.90;;;;;;5048587;28;20444;-64
2022/09/24 10:41:26;;;;;;;1999.90;999.90;;;17.00;99.90;;;;;;5047943;28;20836;-65
2022/09/24 10:43:54;;;;;;;1999.90;999.90;;;16.80;99.90;;;;;;5047237;28;20460;-63
2022/09/24 10:46:55;;;;;;;1999.90;999.90;;;16.60;99.90;;;;;;5047696;28;21099;-65
2022/09/24 10:49:34;;;;;;;1999.90;999.90;;;16.40;99.90;;;;;;5047609;28;20476;-65
2022/09/24 10:52:09;;;;;;;1999.90;999.90;;;16.30;99.90;;;;;;5045598;28;20436;-66
2022/09/24 10:54:53;;;;;;;1999.90;999.90;;;16.20;99.90;;;;;;5047781;28;20482;-66
2022/09/24 10:57:30;;;;;;;1999.90;999.90;;;16.10;99.90;;;;;;5045847;28;20444;-66
2022/09/24 11:00:04;;;;;;;1999.90;999.90;;;16.10;99.90;;;;;;5046322;28;20827;-65
2022/09/24 11:03:05;;;;;;;1999.90;999.90;;;16.00;99.90;;;;;;5045156;28;21013;-66
2022/09/24 11:05:35;;;;;;;1999.90;999.90;;;16.10;99.90;;;;;;5045970;28;20443;-66
2022/09/24 11:08:13;;;;;;;1999.90;999.90;;;16.50;99.90;;;;;;5048821;28;20447;-66
2022/09/24 11:11:04;;;;;;;1999.90;999.90;;;16.80;99.90;;;;;;5051152;28;20510;-66
2022/09/24 11:13:40;;;;;;;1999.90;999.90;;;17.30;99.90;;;;;;5049048;28;20557;-66
2022/09/24 11:16:37;;;;;;;1999.90;999.90;;;18.00;99.90;;;;;;5050458;28;20444;-65
2022/09/24 11:19:17;;;;;;;1999.90;999.90;;;18.60;99.90;;;;;;5058953;28;20439;-66
2022/09/24 11:22:09;;;;;;;1999.90;999.90;;;19.00;99.90;;;;;;5058941;28;20949;-66
2022/09/24 11:24:57;;;;;;;1999.90;999.90;;;19.40;99.90;;;;;;5033657;28;20456;-67
2022/09/24 11:27:45;;;;;;;1999.90;999.90;;;19.80;99.90;;;;;;5050197;28;20451;-66
2022/09/24 11:30:16;;;;;;;1999.90;999.90;;;20.30;99.90;;;;;;5049999;28;20447;-64
2022/09/24 11:33:09;;;;;;;1999.90;999.90;;;20.70;99.90;;;;;;5050069;28;21065;-66
2022/09/24 11:36:05;;;;;;;1999.90;999.90;;;20.90;99.90;;;;;;5049906;28;20812;-65
2022/09/24 11:38:44;;;;;;;1999.90;999.90;;;20.90;99.90;;;;;;5053513;28;20440;-65
2022/09/24 11:41:25;;;;;;;1999.90;999.90;;;20.90;99.90;;;;;;5056207;28;20443;-63
2022/09/24 11:44:19;;;;;;;1999.90;999.90;;;20.80;99.90;;;;;;5049267;28;20455;-65
2022/09/24 11:47:00;;;;;;;1999.90;999.90;;;20.40;99.90;;;;;;5058339;28;20470;-66
2022/09/24 11:49:45;;;;;;;1999.90;999.90;;;20.00;99.90;;;;;;5066854;28;20444;-66
2022/09/24 11:52:19;;;;;;;1999.90;999.90;;;19.90;99.90;;;;;;5059591;28;20458;-67
2022/09/24 11:54:52;;;;;;;1999.90;999.90;;;19.90;99.90;;;;;;5059834;28;20455;-67
2022/09/24 11:57:24;;;;;;;1999.90;999.90;;;19.60;99.90;;;;;;5056874;28;20451;-66
2022/09/24 11:59:58;;;;;;;1999.90;999.90;;;19.80;99.90;;;;;;5069930;28;20447;-64
2022/09/24 12:02:31;;;;;;;1999.90;999.90;;;20.00;99.90;;;;;;5069249;28;20569;-66
2022/09/24 12:05:04;;;;;;;1999.90;999.90;;;20.00;99.90;;;;;;5069652;28;20837;-66
2022/09/24 12:07:38;;;;;;;1999.90;999.90;;;19.40;99.90;;;;;;5069046;28;21023;-68
2022/09/24 12:10:25;;;;;;;1999.90;999.90;;;19.30;99.90;;;;;;5055990;28;20447;-66
2022/09/24 12:12:57;;;;;;;1999.90;999.90;;;19.30;99.90;;;;;;5056923;28;20455;-65
2022/09/24 12:15:30;;;;;;;1999.90;999.90;;;19.20;99.90;;;;;;5058245;28;20972;-66
2022/09/24 12:18:04;;;;;;;1999.90;999.90;;;19.10;99.90;;;;;;5062016;28;20434;-66
2022/09/24 12:20:32;;;;;;;1999.90;999.90;;;18.80;99.90;;;;;;5054080;28;20443;-65
2022/09/24 12:23:06;;;;;;;1999.90;999.90;;;18.60;99.90;;;;;;5053300;28;20475;-65
2022/09/24 12:25:39;;;;;;;1999.90;999.90;;;18.30;99.90;;;;;;5043438;28;20562;-66
2022/09/24 12:28:11;;;;;;;1999.90;999.90;;;18.00;99.90;;;;;;5048844;28;20456;-65
2022/09/24 12:33:40;;;;;;;1999.90;999.90;;;17.50;99.90;;;;;;5048085;28;20448;-66
2022/09/24 12:36:12;;;;;;;1999.90;999.90;;;17.30;99.90;;;;;;5048830;28;20996;-66
2022/09/24 12:38:43;;;;;;;1999.90;999.90;;;17.20;99.90;;;;;;5048811;28;20448;-66
2022/09/24 12:41:23;;;;;;;1999.90;999.90;;;17.10;99.90;;;;;;5049078;28;20448;-67
2022/09/24 12:43:55;;;;;;;1999.90;999.90;;;17.00;99.90;;;;;;5048408;28;20483;-64